sensor_id;sensor_type;location;lat;lon;timestamp;P1;durP1;ratioP1;P2;durP2;ratioP2
2658;SDS011;1339;53.304;10.406;2022-11-15T00:00:09;48.78;;;30.00;;
2658;SDS011;1339;53.304;10.406;2022-11-15T00:02:37;42.10;;;25.63;;
2658;SDS011;1339;53.304;10.406;2022-11-15T00:05:04;31.75;;;22.45;;
2658;SDS011;1339;53.304;10.406;2022-11-15T00:07:31;33.50;;;21.50;;
2658;SDS011;1339;53.304;10.406;2022-11-15T00:09:58;33.67;;;23.80;;
2658;SDS011;1339;53.304;10.406;2022-11-15T00:12:26;34.88;;;24.48;;
2658;SDS011;1339;53.304;10.406;2022-11-15T00:14:53;28.75;;;22.17;;
2658;SDS011;1339;53.304;10.406;2022-11-15T00:17:22;33.22;;;22.50;;
2658;SDS011;1339;53.304;10.406;2022-11-15T00:19:49;29.95;;;22.45;;
2658;SDS011;1339;53.304;10.406;2022-11-15T00:22:16;31.73;;;22.52;;
2658;SDS011;1339;53.304;10.406;2022-11-15T00:24:43;31.45;;;22.42;;
2658;SDS011;1339;53.304;10.406;2022-11-15T00:27:10;30.27;;;22.27;;
2658;SDS011;1339;53.304;10.406;2022-11-15T00:29:37;26.00;;;20.83;;
2658;SDS011;1339;53.304;10.406;2022-11-15T00:32:08;30.95;;;22.05;;
2658;SDS011;1339;53.304;10.406;2022-11-15T00:34:36;32.08;;;21.63;;
2658;SDS011;1339;53.304;10.406;2022-11-15T00:37:03;30.40;;;22.35;;
2658;SDS011;1339;53.304;10.406;2022-11-15T00:39:30;27.77;;;19.85;;
2658;SDS011;1339;53.304;10.406;2022-11-15T00:41:57;28.92;;;21.75;;
2658;SDS011;1339;53.304;10.406;2022-11-15T00:44:24;31.05;;;23.55;;
2658;SDS011;1339;53.304;10.406;2022-11-15T00:46:51;30.25;;;23.05;;
2658;SDS011;1339;53.304;10.406;2022-11-15T00:49:18;28.63;;;22.13;;
2658;SDS011;1339;53.304;10.406;2022-11-15T00:51:47;31.30;;;23.27;;
2658;SDS011;1339;53.304;10.406;2022-11-15T00:54:14;30.83;;;22.02;;
2658;SDS011;1339;53.304;10.406;2022-11-15T00:56:41;29.45;;;22.60;;
2658;SDS011;1339;53.304;10.406;2022-11-15T00:59:08;30.35;;;22.38;;
2658;SDS011;1339;53.304;10.406;2022-11-15T01:01:35;31.08;;;22.90;;
2658;SDS011;1339;53.304;10.406;2022-11-15T01:04:02;30.70;;;23.35;;
2658;SDS011;1339;53.304;10.406;2022-11-15T01:06:29;28.45;;;22.77;;
2658;SDS011;1339;53.304;10.406;2022-11-15T01:08:57;29.88;;;22.67;;
2658;SDS011;1339;53.304;10.406;2022-11-15T01:11:24;27.38;;;24.20;;
2658;SDS011;1339;53.304;10.406;2022-11-15T01:13:51;29.38;;;22.83;;
2658;SDS011;1339;53.304;10.406;2022-11-15T01:16:18;31.27;;;21.88;;
2658;SDS011;1339;53.304;10.406;2022-11-15T01:18:45;32.42;;;22.88;;
2658;SDS011;1339;53.304;10.406;2022-11-15T01:21:14;30.42;;;22.90;;
2658;SDS011;1339;53.304;10.406;2022-11-15T01:23:41;27.40;;;20.95;;
2658;SDS011;1339;53.304;10.406;2022-11-15T01:26:11;30.33;;;23.10;;
2658;SDS011;1339;53.304;10.406;2022-11-15T01:28:39;29.33;;;21.17;;
2658;SDS011;1339;53.304;10.406;2022-11-15T01:31:08;27.38;;;21.42;;
2658;SDS011;1339;53.304;10.406;2022-11-15T01:33:36;25.73;;;18.80;;
2658;SDS011;1339;53.304;10.406;2022-11-15T01:36:03;30.30;;;21.77;;
2658;SDS011;1339;53.304;10.406;2022-11-15T01:38:30;26.88;;;21.23;;
2658;SDS011;1339;53.304;10.406;2022-11-15T01:40:58;29.33;;;21.00;;
2658;SDS011;1339;53.304;10.406;2022-11-15T01:43:27;28.88;;;20.63;;
2658;SDS011;1339;53.304;10.406;2022-11-15T01:45:55;28.90;;;21.25;;
2658;SDS011;1339;53.304;10.406;2022-11-15T01:48:24;25.35;;;19.20;;
2658;SDS011;1339;53.304;10.406;2022-11-15T01:50:52;27.05;;;20.42;;
2658;SDS011;1339;53.304;10.406;2022-11-15T01:53:19;24.30;;;19.50;;
2658;SDS011;1339;53.304;10.406;2022-11-15T01:55:48;23.33;;;19.40;;
2658;SDS011;1339;53.304;10.406;2022-11-15T01:58:15;23.92;;;18.15;;
2658;SDS011;1339;53.304;10.406;2022-11-15T02:00:43;25.08;;;19.02;;
2658;SDS011;1339;53.304;10.406;2022-11-15T02:03:10;23.80;;;20.08;;
2658;SDS011;1339;53.304;10.406;2022-11-15T02:05:37;26.95;;;20.27;;
2658;SDS011;1339;53.304;10.406;2022-11-15T02:08:04;25.23;;;19.27;;
2658;SDS011;1339;53.304;10.406;2022-11-15T02:10:32;22.75;;;19.02;;
2658;SDS011;1339;53.304;10.406;2022-11-15T02:12:59;22.23;;;18.58;;
2658;SDS011;1339;53.304;10.406;2022-11-15T02:15:32;25.35;;;19.02;;
2658;SDS011;1339;53.304;10.406;2022-11-15T02:18:09;23.83;;;18.25;;
2658;SDS011;1339;53.304;10.406;2022-11-15T02:20:51;21.63;;;17.48;;
2658;SDS011;1339;53.304;10.406;2022-11-15T02:23:37;24.00;;;18.50;;
2658;SDS011;1339;53.304;10.406;2022-11-15T02:26:14;21.85;;;17.42;;
2658;SDS011;1339;53.304;10.406;2022-11-15T02:28:48;21.55;;;18.05;;
2658;SDS011;1339;53.304;10.406;2022-11-15T02:31:20;23.30;;;18.33;;
2658;SDS011;1339;53.304;10.406;2022-11-15T02:33:50;21.30;;;17.52;;
2658;SDS011;1339;53.304;10.406;2022-11-15T02:36:23;25.52;;;17.52;;
2658;SDS011;1339;53.304;10.406;2022-11-15T02:38:54;25.70;;;18.92;;
2658;SDS011;1339;53.304;10.406;2022-11-15T02:41:25;20.85;;;17.80;;
2658;SDS011;1339;53.304;10.406;2022-11-15T02:43:55;22.30;;;16.95;;
2658;SDS011;1339;53.304;10.406;2022-11-15T02:46:24;24.17;;;16.42;;
2658;SDS011;1339;53.304;10.406;2022-11-15T02:49:13;33.20;;;17.48;;
2658;SDS011;1339;53.304;10.406;2022-11-15T02:51:41;21.60;;;17.17;;
2658;SDS011;1339;53.304;10.406;2022-11-15T02:54:11;19.52;;;16.80;;
2658;SDS011;1339;53.304;10.406;2022-11-15T02:56:39;21.70;;;16.70;;
2658;SDS011;1339;53.304;10.406;2022-11-15T02:59:22;22.17;;;18.88;;
2658;SDS011;1339;53.304;10.406;2022-11-15T03:01:55;20.52;;;16.70;;
2658;SDS011;1339;53.304;10.406;2022-11-15T03:04:28;25.02;;;18.75;;
2658;SDS011;1339;53.304;10.406;2022-11-15T03:06:58;20.48;;;15.95;;
2658;SDS011;1339;53.304;10.406;2022-11-15T03:09:28;23.88;;;16.40;;
2658;SDS011;1339;53.304;10.406;2022-11-15T03:11:59;28.30;;;17.60;;
2658;SDS011;1339;53.304;10.406;2022-11-15T03:14:29;22.98;;;17.70;;
2658;SDS011;1339;53.304;10.406;2022-11-15T03:16:58;21.52;;;17.00;;
2658;SDS011;1339;53.304;10.406;2022-11-15T03:19:30;20.80;;;17.50;;
2658;SDS011;1339;53.304;10.406;2022-11-15T03:21:59;22.40;;;18.50;;
2658;SDS011;1339;53.304;10.406;2022-11-15T03:24:27;22.27;;;15.80;;
2658;SDS011;1339;53.304;10.406;2022-11-15T03:26:55;24.88;;;18.20;;
2658;SDS011;1339;53.304;10.406;2022-11-15T03:29:24;23.88;;;17.83;;
2658;SDS011;1339;53.304;10.406;2022-11-15T03:31:54;23.45;;;19.65;;
2658;SDS011;1339;53.304;10.406;2022-11-15T03:34:25;22.77;;;18.40;;
2658;SDS011;1339;53.304;10.406;2022-11-15T03:36:53;19.40;;;15.75;;
2658;SDS011;1339;53.304;10.406;2022-11-15T03:39:20;27.30;;;18.33;;
2658;SDS011;1339;53.304;10.406;2022-11-15T03:41:49;22.60;;;18.20;;
2658;SDS011;1339;53.304;10.406;2022-11-15T03:44:20;27.92;;;20.30;;
2658;SDS011;1339;53.304;10.406;2022-11-15T03:46:51;21.83;;;16.67;;
2658;SDS011;1339;53.304;10.406;2022-11-15T03:49:21;21.00;;;16.60;;
2658;SDS011;1339;53.304;10.406;2022-11-15T03:51:51;23.20;;;17.60;;
2658;SDS011;1339;53.304;10.406;2022-11-15T03:54:18;22.30;;;16.58;;
2658;SDS011;1339;53.304;10.406;2022-11-15T03:56:45;18.38;;;15.55;;
2658;SDS011;1339;53.304;10.406;2022-11-15T03:59:12;21.67;;;16.27;;
2658;SDS011;1339;53.304;10.406;2022-11-15T04:01:39;23.05;;;16.90;;
2658;SDS011;1339;53.304;10.406;2022-11-15T04:04:06;22.52;;;16.85;;
2658;SDS011;1339;53.304;10.406;2022-11-15T04:06:33;20.95;;;16.08;;
2658;SDS011;1339;53.304;10.406;2022-11-15T04:09:01;23.40;;;18.17;;
2658;SDS011;1339;53.304;10.406;2022-11-15T04:11:29;19.58;;;16.42;;
2658;SDS011;1339;53.304;10.406;2022-11-15T04:13:56;26.52;;;18.38;;
2658;SDS011;1339;53.304;10.406;2022-11-15T04:16:23;19.15;;;16.77;;
2658;SDS011;1339;53.304;10.406;2022-11-15T04:18:50;23.63;;;17.50;;
2658;SDS011;1339;53.304;10.406;2022-11-15T04:21:31;23.90;;;17.42;;
2658;SDS011;1339;53.304;10.406;2022-11-15T04:24:16;23.30;;;18.02;;
2658;SDS011;1339;53.304;10.406;2022-11-15T04:26:43;21.20;;;17.45;;
2658;SDS011;1339;53.304;10.406;2022-11-15T04:29:10;22.80;;;18.15;;
2658;SDS011;1339;53.304;10.406;2022-11-15T04:31:55;22.15;;;17.58;;
2658;SDS011;1339;53.304;10.406;2022-11-15T04:34:22;20.50;;;17.08;;
2658;SDS011;1339;53.304;10.406;2022-11-15T04:36:49;23.70;;;17.20;;
2658;SDS011;1339;53.304;10.406;2022-11-15T04:39:35;24.08;;;16.58;;
2658;SDS011;1339;53.304;10.406;2022-11-15T04:42:02;18.67;;;16.70;;
2658;SDS011;1339;53.304;10.406;2022-11-15T04:44:29;23.70;;;19.35;;
2658;SDS011;1339;53.304;10.406;2022-11-15T04:46:56;21.88;;;18.50;;
2658;SDS011;1339;53.304;10.406;2022-11-15T04:49:23;19.73;;;16.45;;
2658;SDS011;1339;53.304;10.406;2022-11-15T04:51:50;21.55;;;16.80;;
2658;SDS011;1339;53.304;10.406;2022-11-15T04:54:17;20.98;;;16.88;;
2658;SDS011;1339;53.304;10.406;2022-11-15T04:56:45;23.88;;;16.55;;
2658;SDS011;1339;53.304;10.406;2022-11-15T04:59:13;21.30;;;16.30;;
2658;SDS011;1339;53.304;10.406;2022-11-15T05:01:40;19.55;;;15.23;;
2658;SDS011;1339;53.304;10.406;2022-11-15T05:04:07;24.50;;;17.05;;
2658;SDS011;1339;53.304;10.406;2022-11-15T05:06:46;22.83;;;17.98;;
2658;SDS011;1339;53.304;10.406;2022-11-15T05:09:13;20.20;;;15.95;;
2658;SDS011;1339;53.304;10.406;2022-11-15T05:11:40;20.75;;;17.05;;
2658;SDS011;1339;53.304;10.406;2022-11-15T05:14:09;22.65;;;17.38;;
2658;SDS011;1339;53.304;10.406;2022-11-15T05:16:36;20.73;;;16.60;;
2658;SDS011;1339;53.304;10.406;2022-11-15T05:19:03;23.00;;;17.80;;
2658;SDS011;1339;53.304;10.406;2022-11-15T05:21:30;23.38;;;17.52;;
2658;SDS011;1339;53.304;10.406;2022-11-15T05:23:57;23.77;;;17.60;;
2658;SDS011;1339;53.304;10.406;2022-11-15T05:26:24;25.52;;;18.42;;
2658;SDS011;1339;53.304;10.406;2022-11-15T05:28:52;22.75;;;16.67;;
2658;SDS011;1339;53.304;10.406;2022-11-15T05:31:21;24.52;;;19.15;;
2658;SDS011;1339;53.304;10.406;2022-11-15T05:33:49;24.00;;;17.77;;
2658;SDS011;1339;53.304;10.406;2022-11-15T05:36:17;26.08;;;17.65;;
2658;SDS011;1339;53.304;10.406;2022-11-15T05:38:45;25.30;;;17.38;;
2658;SDS011;1339;53.304;10.406;2022-11-15T05:41:13;28.30;;;19.25;;
2658;SDS011;1339;53.304;10.406;2022-11-15T05:43:41;24.50;;;17.27;;
2658;SDS011;1339;53.304;10.406;2022-11-15T05:46:09;23.42;;;17.42;;
2658;SDS011;1339;53.304;10.406;2022-11-15T05:48:38;22.17;;;16.42;;
2658;SDS011;1339;53.304;10.406;2022-11-15T05:51:06;23.98;;;18.83;;
2658;SDS011;1339;53.304;10.406;2022-11-15T05:53:34;27.48;;;18.73;;
2658;SDS011;1339;53.304;10.406;2022-11-15T05:56:01;21.67;;;17.48;;
2658;SDS011;1339;53.304;10.406;2022-11-15T05:58:32;23.77;;;18.90;;
2658;SDS011;1339;53.304;10.406;2022-11-15T06:00:59;30.42;;;19.73;;
2658;SDS011;1339;53.304;10.406;2022-11-15T06:03:26;20.08;;;16.67;;
2658;SDS011;1339;53.304;10.406;2022-11-15T06:05:55;23.02;;;17.30;;
2658;SDS011;1339;53.304;10.406;2022-11-15T06:08:22;21.95;;;18.30;;
2658;SDS011;1339;53.304;10.406;2022-11-15T06:10:49;23.02;;;18.23;;
2658;SDS011;1339;53.304;10.406;2022-11-15T06:13:16;27.98;;;19.58;;
2658;SDS011;1339;53.304;10.406;2022-11-15T06:15:43;23.13;;;17.83;;
2658;SDS011;1339;53.304;10.406;2022-11-15T06:18:10;26.15;;;19.48;;
2658;SDS011;1339;53.304;10.406;2022-11-15T06:20:37;29.48;;;18.25;;
2658;SDS011;1339;53.304;10.406;2022-11-15T06:23:06;26.17;;;18.50;;
2658;SDS011;1339;53.304;10.406;2022-11-15T06:25:33;23.00;;;17.80;;
2658;SDS011;1339;53.304;10.406;2022-11-15T06:28:00;32.00;;;17.83;;
2658;SDS011;1339;53.304;10.406;2022-11-15T06:30:27;26.35;;;19.55;;
2658;SDS011;1339;53.304;10.406;2022-11-15T06:33:01;24.17;;;19.17;;
2658;SDS011;1339;53.304;10.406;2022-11-15T06:35:28;21.25;;;17.13;;
2658;SDS011;1339;53.304;10.406;2022-11-15T06:37:55;25.98;;;16.85;;
2658;SDS011;1339;53.304;10.406;2022-11-15T06:40:24;27.75;;;18.70;;
2658;SDS011;1339;53.304;10.406;2022-11-15T06:42:51;27.92;;;20.00;;
2658;SDS011;1339;53.304;10.406;2022-11-15T06:45:23;21.15;;;17.50;;
2658;SDS011;1339;53.304;10.406;2022-11-15T06:47:50;22.88;;;17.27;;
2658;SDS011;1339;53.304;10.406;2022-11-15T06:50:17;24.10;;;17.45;;
2658;SDS011;1339;53.304;10.406;2022-11-15T06:52:44;25.42;;;20.20;;
2658;SDS011;1339;53.304;10.406;2022-11-15T06:55:11;28.75;;;18.77;;
2658;SDS011;1339;53.304;10.406;2022-11-15T06:57:46;24.88;;;18.17;;
2658;SDS011;1339;53.304;10.406;2022-11-15T07:00:14;27.30;;;18.92;;
2658;SDS011;1339;53.304;10.406;2022-11-15T07:02:41;23.30;;;17.50;;
2658;SDS011;1339;53.304;10.406;2022-11-15T07:05:08;26.95;;;20.13;;
2658;SDS011;1339;53.304;10.406;2022-11-15T07:07:36;29.38;;;19.20;;
2658;SDS011;1339;53.304;10.406;2022-11-15T07:10:03;24.98;;;18.27;;
2658;SDS011;1339;53.304;10.406;2022-11-15T07:12:30;24.27;;;16.63;;
2658;SDS011;1339;53.304;10.406;2022-11-15T07:14:59;24.98;;;18.92;;
2658;SDS011;1339;53.304;10.406;2022-11-15T07:17:26;26.92;;;19.40;;
2658;SDS011;1339;53.304;10.406;2022-11-15T07:19:53;27.80;;;18.88;;
2658;SDS011;1339;53.304;10.406;2022-11-15T07:22:20;24.27;;;18.70;;
2658;SDS011;1339;53.304;10.406;2022-11-15T07:24:47;27.15;;;20.48;;
2658;SDS011;1339;53.304;10.406;2022-11-15T07:27:14;23.10;;;17.88;;
2658;SDS011;1339;53.304;10.406;2022-11-15T07:29:41;29.42;;;21.13;;
2658;SDS011;1339;53.304;10.406;2022-11-15T07:32:10;28.33;;;21.40;;
2658;SDS011;1339;53.304;10.406;2022-11-15T07:34:37;26.70;;;18.50;;
2658;SDS011;1339;53.304;10.406;2022-11-15T07:37:04;28.20;;;18.75;;
2658;SDS011;1339;53.304;10.406;2022-11-15T07:39:31;22.42;;;17.98;;
2658;SDS011;1339;53.304;10.406;2022-11-15T07:41:58;21.50;;;18.73;;
2658;SDS011;1339;53.304;10.406;2022-11-15T07:44:43;21.73;;;17.40;;
2658;SDS011;1339;53.304;10.406;2022-11-15T07:47:11;27.50;;;19.38;;
2658;SDS011;1339;53.304;10.406;2022-11-15T07:49:38;25.10;;;17.35;;
2658;SDS011;1339;53.304;10.406;2022-11-15T07:52:05;23.35;;;18.30;;
2658;SDS011;1339;53.304;10.406;2022-11-15T07:54:32;24.67;;;20.13;;
2658;SDS011;1339;53.304;10.406;2022-11-15T07:57:00;25.15;;;19.42;;
2658;SDS011;1339;53.304;10.406;2022-11-15T07:59:27;22.58;;;17.83;;
2658;SDS011;1339;53.304;10.406;2022-11-15T08:01:54;25.67;;;19.60;;
2658;SDS011;1339;53.304;10.406;2022-11-15T08:04:22;23.25;;;17.85;;
2658;SDS011;1339;53.304;10.406;2022-11-15T08:06:49;23.85;;;18.88;;
2658;SDS011;1339;53.304;10.406;2022-11-15T08:09:16;26.80;;;19.02;;
2658;SDS011;1339;53.304;10.406;2022-11-15T08:11:43;23.95;;;18.85;;
2658;SDS011;1339;53.304;10.406;2022-11-15T08:14:10;21.33;;;18.30;;
2658;SDS011;1339;53.304;10.406;2022-11-15T08:16:37;22.35;;;17.45;;
2658;SDS011;1339;53.304;10.406;2022-11-15T08:19:04;19.13;;;16.95;;
2658;SDS011;1339;53.304;10.406;2022-11-15T08:21:33;20.60;;;17.35;;
2658;SDS011;1339;53.304;10.406;2022-11-15T08:24:00;21.13;;;16.50;;
2658;SDS011;1339;53.304;10.406;2022-11-15T08:26:27;20.52;;;18.20;;
2658;SDS011;1339;53.304;10.406;2022-11-15T08:28:55;19.60;;;16.08;;
2658;SDS011;1339;53.304;10.406;2022-11-15T08:31:22;20.17;;;15.98;;
2658;SDS011;1339;53.304;10.406;2022-11-15T08:33:49;19.05;;;14.55;;
2658;SDS011;1339;53.304;10.406;2022-11-15T08:36:16;21.70;;;16.38;;
2658;SDS011;1339;53.304;10.406;2022-11-15T08:38:45;19.80;;;15.88;;
2658;SDS011;1339;53.304;10.406;2022-11-15T08:41:13;22.58;;;17.70;;
2658;SDS011;1339;53.304;10.406;2022-11-15T08:43:40;18.92;;;15.48;;
2658;SDS011;1339;53.304;10.406;2022-11-15T08:46:08;16.63;;;14.77;;
2658;SDS011;1339;53.304;10.406;2022-11-15T08:48:36;15.93;;;13.95;;
2658;SDS011;1339;53.304;10.406;2022-11-15T08:51:03;18.73;;;14.70;;
2658;SDS011;1339;53.304;10.406;2022-11-15T08:53:30;15.95;;;13.88;;
2658;SDS011;1339;53.304;10.406;2022-11-15T08:55:59;17.05;;;14.00;;
2658;SDS011;1339;53.304;10.406;2022-11-15T08:58:26;17.70;;;14.05;;
2658;SDS011;1339;53.304;10.406;2022-11-15T09:00:53;18.17;;;13.52;;
2658;SDS011;1339;53.304;10.406;2022-11-15T09:03:20;14.57;;;12.90;;
2658;SDS011;1339;53.304;10.406;2022-11-15T09:05:47;15.73;;;12.95;;
2658;SDS011;1339;53.304;10.406;2022-11-15T09:08:14;14.82;;;12.73;;
2658;SDS011;1339;53.304;10.406;2022-11-15T09:10:41;15.63;;;13.23;;
2658;SDS011;1339;53.304;10.406;2022-11-15T09:13:09;15.77;;;14.15;;
2658;SDS011;1339;53.304;10.406;2022-11-15T09:15:37;16.98;;;13.80;;
2658;SDS011;1339;53.304;10.406;2022-11-15T09:18:04;14.77;;;13.13;;
2658;SDS011;1339;53.304;10.406;2022-11-15T09:20:31;18.92;;;14.88;;
2658;SDS011;1339;53.304;10.406;2022-11-15T09:22:59;14.82;;;12.48;;
2658;SDS011;1339;53.304;10.406;2022-11-15T09:25:26;14.80;;;13.20;;
2658;SDS011;1339;53.304;10.406;2022-11-15T09:27:54;15.20;;;13.73;;
2658;SDS011;1339;53.304;10.406;2022-11-15T09:30:23;15.38;;;13.77;;
2658;SDS011;1339;53.304;10.406;2022-11-15T09:32:50;15.07;;;13.48;;
2658;SDS011;1339;53.304;10.406;2022-11-15T09:35:17;14.55;;;12.90;;
2658;SDS011;1339;53.304;10.406;2022-11-15T09:37:44;15.50;;;12.23;;
2658;SDS011;1339;53.304;10.406;2022-11-15T09:40:12;14.13;;;12.63;;
2658;SDS011;1339;53.304;10.406;2022-11-15T09:42:58;13.63;;;11.82;;
2658;SDS011;1339;53.304;10.406;2022-11-15T09:45:30;14.60;;;11.38;;
2658;SDS011;1339;53.304;10.406;2022-11-15T09:50:50;13.48;;;12.05;;
2658;SDS011;1339;53.304;10.406;2022-11-15T09:53:20;16.58;;;12.40;;
2658;SDS011;1339;53.304;10.406;2022-11-15T09:55:51;13.38;;;12.07;;
2658;SDS011;1339;53.304;10.406;2022-11-15T09:58:22;16.50;;;13.05;;
2658;SDS011;1339;53.304;10.406;2022-11-15T10:00:52;14.25;;;12.85;;
2658;SDS011;1339;53.304;10.406;2022-11-15T10:03:22;13.63;;;12.35;;
2658;SDS011;1339;53.304;10.406;2022-11-15T10:05:50;15.02;;;13.48;;
2658;SDS011;1339;53.304;10.406;2022-11-15T10:08:27;15.25;;;13.75;;
2658;SDS011;1339;53.304;10.406;2022-11-15T10:10:56;17.60;;;15.80;;
2658;SDS011;1339;53.304;10.406;2022-11-15T10:13:24;16.40;;;14.70;;
2658;SDS011;1339;53.304;10.406;2022-11-15T10:15:53;13.70;;;11.57;;
2658;SDS011;1339;53.304;10.406;2022-11-15T10:18:22;15.63;;;13.15;;
2658;SDS011;1339;53.304;10.406;2022-11-15T10:20:54;13.80;;;10.85;;
2658;SDS011;1339;53.304;10.406;2022-11-15T10:23:23;15.35;;;12.20;;
2658;SDS011;1339;53.304;10.406;2022-11-15T10:25:50;13.23;;;11.60;;
2658;SDS011;1339;53.304;10.406;2022-11-15T10:28:21;15.30;;;12.30;;
2658;SDS011;1339;53.304;10.406;2022-11-15T10:30:49;18.13;;;11.73;;
2658;SDS011;1339;53.304;10.406;2022-11-15T10:33:19;14.25;;;12.77;;
2658;SDS011;1339;53.304;10.406;2022-11-15T10:35:49;12.32;;;10.80;;
2658;SDS011;1339;53.304;10.406;2022-11-15T10:38:47;12.65;;;11.45;;
2658;SDS011;1339;53.304;10.406;2022-11-15T10:41:18;13.85;;;10.35;;
2658;SDS011;1339;53.304;10.406;2022-11-15T10:43:45;16.65;;;12.10;;
2658;SDS011;1339;53.304;10.406;2022-11-15T10:46:27;11.57;;;10.32;;
2658;SDS011;1339;53.304;10.406;2022-11-15T10:48:59;13.48;;;10.68;;
2658;SDS011;1339;53.304;10.406;2022-11-15T10:51:40;12.18;;;9.98;;
2658;SDS011;1339;53.304;10.406;2022-11-15T10:54:08;15.43;;;11.43;;
2658;SDS011;1339;53.304;10.406;2022-11-15T10:56:36;13.40;;;12.00;;
2658;SDS011;1339;53.304;10.406;2022-11-15T10:59:03;12.93;;;10.95;;
2658;SDS011;1339;53.304;10.406;2022-11-15T11:01:30;12.35;;;10.18;;
2658;SDS011;1339;53.304;10.406;2022-11-15T11:03:59;12.10;;;10.90;;
2658;SDS011;1339;53.304;10.406;2022-11-15T11:06:27;12.35;;;10.63;;
2658;SDS011;1339;53.304;10.406;2022-11-15T11:08:55;11.43;;;10.32;;
2658;SDS011;1339;53.304;10.406;2022-11-15T11:11:23;11.95;;;10.75;;
2658;SDS011;1339;53.304;10.406;2022-11-15T11:13:50;12.43;;;11.23;;
2658;SDS011;1339;53.304;10.406;2022-11-15T11:16:19;12.27;;;10.82;;
2658;SDS011;1339;53.304;10.406;2022-11-15T11:18:49;11.70;;;10.27;;
2658;SDS011;1339;53.304;10.406;2022-11-15T11:21:22;12.35;;;10.75;;
2658;SDS011;1339;53.304;10.406;2022-11-15T11:23:53;10.35;;;9.25;;
2658;SDS011;1339;53.304;10.406;2022-11-15T11:26:29;12.83;;;9.90;;
2658;SDS011;1339;53.304;10.406;2022-11-15T11:29:01;10.65;;;9.55;;
2658;SDS011;1339;53.304;10.406;2022-11-15T11:31:30;10.10;;;9.10;;
2658;SDS011;1339;53.304;10.406;2022-11-15T11:34:04;10.05;;;8.23;;
2658;SDS011;1339;53.304;10.406;2022-11-15T11:36:39;10.13;;;8.73;;
2658;SDS011;1339;53.304;10.406;2022-11-15T11:39:13;9.07;;;8.27;;
2658;SDS011;1339;53.304;10.406;2022-11-15T11:41:46;9.73;;;8.73;;
2658;SDS011;1339;53.304;10.406;2022-11-15T11:44:16;10.65;;;8.77;;
2658;SDS011;1339;53.304;10.406;2022-11-15T11:46:49;8.60;;;7.90;;
2658;SDS011;1339;53.304;10.406;2022-11-15T11:49:19;10.90;;;7.85;;
2658;SDS011;1339;53.304;10.406;2022-11-15T11:51:49;8.53;;;7.80;;
2658;SDS011;1339;53.304;10.406;2022-11-15T11:54:19;7.93;;;7.17;;
2658;SDS011;1339;53.304;10.406;2022-11-15T11:56:47;7.63;;;6.90;;
2658;SDS011;1339;53.304;10.406;2022-11-15T11:59:16;9.70;;;8.73;;
2658;SDS011;1339;53.304;10.406;2022-11-15T12:01:45;9.13;;;8.33;;
2658;SDS011;1339;53.304;10.406;2022-11-15T12:04:13;9.57;;;8.68;;
2658;SDS011;1339;53.304;10.406;2022-11-15T12:06:42;9.93;;;8.50;;
2658;SDS011;1339;53.304;10.406;2022-11-15T12:09:14;9.50;;;8.60;;
2658;SDS011;1339;53.304;10.406;2022-11-15T12:11:47;10.20;;;9.10;;
2658;SDS011;1339;53.304;10.406;2022-11-15T12:14:19;8.03;;;7.23;;
2658;SDS011;1339;53.304;10.406;2022-11-15T12:16:47;7.60;;;6.83;;
2658;SDS011;1339;53.304;10.406;2022-11-15T12:19:14;8.77;;;6.97;;
2658;SDS011;1339;53.304;10.406;2022-11-15T12:21:43;8.20;;;7.40;;
2658;SDS011;1339;53.304;10.406;2022-11-15T12:24:13;7.47;;;6.77;;
2658;SDS011;1339;53.304;10.406;2022-11-15T12:26:42;7.63;;;6.90;;
2658;SDS011;1339;53.304;10.406;2022-11-15T12:29:15;7.97;;;6.90;;
2658;SDS011;1339;53.304;10.406;2022-11-15T12:31:43;8.00;;;7.20;;
2658;SDS011;1339;53.304;10.406;2022-11-15T12:34:13;6.73;;;5.93;;
2658;SDS011;1339;53.304;10.406;2022-11-15T12:36:42;8.40;;;7.70;;
2658;SDS011;1339;53.304;10.406;2022-11-15T12:39:10;7.53;;;6.83;;
2658;SDS011;1339;53.304;10.406;2022-11-15T12:41:39;7.87;;;6.87;;
2658;SDS011;1339;53.304;10.406;2022-11-15T12:44:10;7.73;;;7.03;;
2658;SDS011;1339;53.304;10.406;2022-11-15T12:52:08;8.53;;;7.73;;
2658;SDS011;1339;53.304;10.406;2022-11-15T12:57:33;9.70;;;8.80;;
2658;SDS011;1339;53.304;10.406;2022-11-15T13:00:02;14.10;;;11.83;;
2658;SDS011;1339;53.304;10.406;2022-11-15T13:02:32;12.87;;;10.80;;
2658;SDS011;1339;53.304;10.406;2022-11-15T13:07:56;11.03;;;9.80;;
2658;SDS011;1339;53.304;10.406;2022-11-15T13:10:30;12.83;;;11.53;;
2658;SDS011;1339;53.304;10.406;2022-11-15T13:13:00;11.03;;;9.47;;
2658;SDS011;1339;53.304;10.406;2022-11-15T13:15:31;9.70;;;8.80;;
2658;SDS011;1339;53.304;10.406;2022-11-15T13:18:17;10.60;;;9.50;;
2658;SDS011;1339;53.304;10.406;2022-11-15T13:20:46;9.43;;;8.53;;
2658;SDS011;1339;53.304;10.406;2022-11-15T13:23:13;10.20;;;9.27;;
2658;SDS011;1339;53.304;10.406;2022-11-15T13:28:38;9.03;;;7.97;;
2658;SDS011;1339;53.304;10.406;2022-11-15T13:31:25;9.77;;;8.77;;
2658;SDS011;1339;53.304;10.406;2022-11-15T13:33:53;8.07;;;7.37;;
2658;SDS011;1339;53.304;10.406;2022-11-15T13:36:22;7.80;;;6.63;;
2658;SDS011;1339;53.304;10.406;2022-11-15T13:38:57;11.63;;;7.07;;
2658;SDS011;1339;53.304;10.406;2022-11-15T13:41:25;8.17;;;7.37;;
2658;SDS011;1339;53.304;10.406;2022-11-15T13:43:54;6.93;;;6.23;;
2658;SDS011;1339;53.304;10.406;2022-11-15T13:46:22;8.40;;;6.97;;
2658;SDS011;1339;53.304;10.406;2022-11-15T13:48:53;6.57;;;5.97;;
2658;SDS011;1339;53.304;10.406;2022-11-15T13:51:22;9.23;;;8.33;;
2658;SDS011;1339;53.304;10.406;2022-11-15T13:53:52;7.23;;;6.63;;
2658;SDS011;1339;53.304;10.406;2022-11-15T13:56:20;7.67;;;6.57;;
2658;SDS011;1339;53.304;10.406;2022-11-15T13:58:47;6.63;;;5.73;;
2658;SDS011;1339;53.304;10.406;2022-11-15T14:01:17;7.53;;;6.80;;
2658;SDS011;1339;53.304;10.406;2022-11-15T14:03:47;7.53;;;6.80;;
2658;SDS011;1339;53.304;10.406;2022-11-15T14:06:16;7.70;;;7.10;;
2658;SDS011;1339;53.304;10.406;2022-11-15T14:08:57;6.97;;;6.37;;
2658;SDS011;1339;53.304;10.406;2022-11-15T14:11:24;6.93;;;6.23;;
2658;SDS011;1339;53.304;10.406;2022-11-15T14:16:42;6.83;;;6.20;;
2658;SDS011;1339;53.304;10.406;2022-11-15T14:19:10;6.50;;;5.90;;
2658;SDS011;1339;53.304;10.406;2022-11-15T14:21:37;7.53;;;6.83;;
2658;SDS011;1339;53.304;10.406;2022-11-15T14:24:24;9.07;;;6.23;;
2658;SDS011;1339;53.304;10.406;2022-11-15T14:26:56;6.60;;;6.00;;
2658;SDS011;1339;53.304;10.406;2022-11-15T14:29:24;7.30;;;6.60;;
2658;SDS011;1339;53.304;10.406;2022-11-15T14:31:53;7.33;;;6.70;;
2658;SDS011;1339;53.304;10.406;2022-11-15T14:34:20;6.13;;;5.57;;
2658;SDS011;1339;53.304;10.406;2022-11-15T14:36:47;5.90;;;5.17;;
2658;SDS011;1339;53.304;10.406;2022-11-15T14:39:14;7.70;;;6.87;;
2658;SDS011;1339;53.304;10.406;2022-11-15T14:41:41;7.50;;;6.77;;
2658;SDS011;1339;53.304;10.406;2022-11-15T14:44:09;11.90;;;6.60;;
2658;SDS011;1339;53.304;10.406;2022-11-15T14:46:37;8.33;;;7.43;;
2658;SDS011;1339;53.304;10.406;2022-11-15T14:49:05;8.03;;;7.10;;
2658;SDS011;1339;53.304;10.406;2022-11-15T14:51:32;8.20;;;6.93;;
2658;SDS011;1339;53.304;10.406;2022-11-15T14:53:59;9.60;;;7.23;;
2658;SDS011;1339;53.304;10.406;2022-11-15T14:56:26;6.60;;;5.90;;
2658;SDS011;1339;53.304;10.406;2022-11-15T14:58:54;8.93;;;7.00;;
2658;SDS011;1339;53.304;10.406;2022-11-15T15:01:23;9.23;;;7.17;;
2658;SDS011;1339;53.304;10.406;2022-11-15T15:03:50;8.73;;;6.90;;
2658;SDS011;1339;53.304;10.406;2022-11-15T15:06:20;8.63;;;6.60;;
2658;SDS011;1339;53.304;10.406;2022-11-15T15:08:47;7.87;;;7.10;;
2658;SDS011;1339;53.304;10.406;2022-11-15T15:11:16;6.47;;;5.88;;